createdAt,value
2023-04-27T00:00:29.771Z,23.70
2023-04-27T00:03:07.285Z,23.60
2023-04-27T00:05:41.896Z,23.50
2023-04-27T00:08:16.109Z,23.40
2023-04-27T00:10:50.241Z,23.30
2023-04-27T00:13:24.733Z,23.10
2023-04-27T00:15:58.873Z,23.00
2023-04-27T00:18:34.377Z,22.90
2023-04-27T00:21:09.913Z,22.80
2023-04-27T00:23:44.293Z,22.70
2023-04-27T00:26:18.487Z,22.60
2023-04-27T00:28:52.840Z,22.60
2023-04-27T00:31:27.048Z,22.60
2023-04-27T00:34:01.271Z,22.70
2023-04-27T00:36:38.170Z,22.70
2023-04-27T00:39:12.519Z,22.70
2023-04-27T00:41:46.898Z,22.80
2023-04-27T00:44:30.276Z,22.80
2023-04-27T00:47:04.634Z,22.90
2023-04-27T00:49:39.218Z,22.90
2023-04-27T00:52:13.362Z,23.00
2023-04-27T00:54:49.120Z,23.10
2023-04-27T00:57:24.494Z,23.20
2023-04-27T00:59:59.044Z,23.20
2023-04-27T01:02:54.750Z,23.20
2023-04-27T01:05:48.974Z,23.20
2023-04-27T01:08:43.100Z,23.30
2023-04-27T01:11:38.227Z,23.40
2023-04-27T01:14:32.561Z,23.40
2023-04-27T01:17:27.091Z,23.50
2023-04-27T01:20:21.508Z,23.60
2023-04-27T01:23:17.456Z,23.60
2023-04-27T01:26:14.751Z,23.60
2023-04-27T01:29:08.920Z,23.70
2023-04-27T01:32:03.063Z,23.80
2023-04-27T01:34:58.791Z,23.80
2023-04-27T01:37:53.466Z,23.80
2023-04-27T01:40:47.605Z,23.80
2023-04-27T01:43:43.289Z,23.80
2023-04-27T01:46:37.549Z,23.80
2023-04-27T01:49:31.652Z,23.90
2023-04-27T01:52:25.822Z,24.00
2023-04-27T01:55:20.089Z,24.10
2023-04-27T01:58:14.248Z,24.10
2023-04-27T02:01:08.546Z,24.10
2023-04-27T02:04:02.949Z,24.00
2023-04-27T02:06:57.390Z,24.10
2023-04-27T02:09:51.569Z,24.20
2023-04-27T02:12:45.724Z,24.20
2023-04-27T02:15:40.079Z,24.20
2023-04-27T02:18:35.015Z,24.30
2023-04-27T02:21:29.720Z,24.30
2023-04-27T02:24:23.840Z,24.40
2023-04-27T02:27:17.985Z,24.40
2023-04-27T02:30:13.684Z,24.50
2023-04-27T02:33:08.463Z,24.50
2023-04-27T02:36:02.562Z,24.50
2023-04-27T02:38:56.760Z,24.60
2023-04-27T02:41:50.865Z,24.70
2023-04-27T02:44:45.261Z,24.70
2023-04-27T02:47:39.448Z,24.70
2023-04-27T02:50:33.633Z,24.80
2023-04-27T02:53:28.011Z,24.80
2023-04-27T02:56:22.201Z,24.80
2023-04-27T02:59:16.515Z,24.80
2023-04-27T03:02:10.840Z,24.90
2023-04-27T03:05:05.713Z,24.90
2023-04-27T03:07:59.831Z,25.00
2023-04-27T03:10:53.949Z,25.00
2023-04-27T03:13:48.489Z,25.00
2023-04-27T03:16:42.682Z,25.00
2023-04-27T03:19:36.852Z,25.00
2023-04-27T03:22:30.948Z,25.00
2023-04-27T03:25:25.274Z,24.90
2023-04-27T03:28:19.389Z,24.90
2023-04-27T03:31:16.015Z,24.90
2023-04-27T03:34:10.164Z,25.00
2023-04-27T03:37:04.400Z,25.00
2023-04-27T03:39:58.586Z,25.00
2023-04-27T03:42:52.794Z,25.00
2023-04-27T03:45:47.070Z,25.00
2023-04-27T03:48:41.413Z,25.00
2023-04-27T03:51:35.763Z,25.00
2023-04-27T03:54:29.925Z,25.10
2023-04-27T03:57:24.035Z,25.10
2023-04-27T04:00:18.356Z,25.00
2023-04-27T04:03:12.835Z,25.10
2023-04-27T04:06:07.367Z,25.10
2023-04-27T04:09:01.577Z,25.10
2023-04-27T04:11:55.712Z,25.10
2023-04-27T04:14:50.247Z,25.10
2023-04-27T04:17:44.781Z,25.10
2023-04-27T04:20:38.951Z,25.20
2023-04-27T04:23:34.056Z,25.20
2023-04-27T04:26:28.686Z,25.20
2023-04-27T04:29:23.093Z,25.30
2023-04-27T04:32:19.720Z,25.30
2023-04-27T04:35:14.057Z,25.30
2023-04-27T04:38:08.186Z,25.40
2023-04-27T04:41:02.349Z,25.40
2023-04-27T04:43:56.789Z,25.50
2023-04-27T04:46:51.397Z,25.50
2023-04-27T04:49:45.545Z,25.40
2023-04-27T04:52:39.875Z,25.40
2023-04-27T04:55:34.064Z,25.40
2023-04-27T04:58:28.208Z,25.40
2023-04-27T05:01:22.419Z,25.40
2023-04-27T05:04:16.739Z,25.50
2023-04-27T05:07:14.712Z,25.60
2023-04-27T05:10:09.915Z,25.60
2023-04-27T05:13:06.510Z,25.60
2023-04-27T05:16:00.907Z,25.60
2023-04-27T05:18:55.972Z,25.50
2023-04-27T05:21:50.105Z,25.50
2023-04-27T05:24:44.546Z,25.50
2023-04-27T05:27:38.676Z,25.50
2023-04-27T05:30:32.856Z,25.40
2023-04-27T05:33:27.096Z,25.30
2023-04-27T05:36:21.291Z,25.30
2023-04-27T05:39:15.983Z,25.30
2023-04-27T05:42:10.377Z,25.20
2023-04-27T05:45:05.340Z,25.20
2023-04-27T05:47:59.495Z,25.20
2023-04-27T05:51:02.684Z,25.10
2023-04-27T05:53:57.066Z,25.10
2023-04-27T05:56:52.304Z,25.10
2023-04-27T05:59:46.364Z,25.10
2023-04-27T06:02:40.692Z,25.10
2023-04-27T06:05:35.710Z,25.10
2023-04-27T06:08:30.964Z,25.00
2023-04-27T06:11:25.092Z,25.00
2023-04-27T06:14:19.502Z,25.10
2023-04-27T06:17:13.660Z,25.00
2023-04-27T06:20:09.635Z,24.80
2023-04-27T06:23:03.966Z,24.80
2023-04-27T06:25:58.597Z,24.80
2023-04-27T06:28:52.883Z,24.70
2023-04-27T06:31:47.462Z,24.60
2023-04-27T06:34:41.701Z,24.50
2023-04-27T06:37:35.854Z,24.50
2023-04-27T06:40:30.056Z,24.50
2023-04-27T06:43:24.409Z,24.40
2023-04-27T06:46:18.736Z,24.40
2023-04-27T06:49:13.088Z,24.40
2023-04-27T06:52:07.506Z,24.40
2023-04-27T06:55:02.116Z,24.40
2023-04-27T06:57:56.230Z,24.30
2023-04-27T07:00:50.560Z,24.30
2023-04-27T07:03:44.844Z,24.30
2023-04-27T07:06:39.093Z,24.30
2023-04-27T07:09:33.562Z,24.40
2023-04-27T07:12:28.225Z,24.40
2023-04-27T07:15:24.056Z,24.40
2023-04-27T07:18:18.220Z,24.30
2023-04-27T07:21:12.596Z,24.30
2023-04-27T07:24:07.178Z,24.30
2023-04-27T07:27:03.869Z,24.30
2023-04-27T07:29:58.033Z,24.30
2023-04-27T07:32:55.656Z,24.30
2023-04-27T07:35:51.620Z,24.40
2023-04-27T07:38:46.984Z,24.40
2023-04-27T07:41:41.194Z,24.40
2023-04-27T07:44:35.494Z,24.40
2023-04-27T07:47:29.746Z,24.40
2023-04-27T07:50:26.014Z,24.20
2023-04-27T07:53:20.247Z,24.10
2023-04-27T07:56:14.439Z,24.10
2023-04-27T07:59:09.040Z,24.10
2023-04-27T08:05:00.424Z,24.00
2023-04-27T08:07:54.950Z,24.00
2023-04-27T08:10:49.143Z,24.00
2023-04-27T08:13:43.347Z,24.00
2023-04-27T08:16:37.950Z,23.90
2023-04-27T08:19:32.555Z,23.80
2023-04-27T08:22:26.814Z,23.80
2023-04-27T08:25:21.133Z,23.80
2023-04-27T08:28:16.745Z,23.80
2023-04-27T08:31:10.904Z,23.80
2023-04-27T08:34:05.149Z,23.80
2023-04-27T08:36:59.360Z,23.70
2023-04-27T08:39:54.276Z,23.70
2023-04-27T08:43:02.452Z,23.70
2023-04-27T08:45:57.741Z,23.80
2023-04-27T08:48:53.380Z,23.80
2023-04-27T08:51:47.785Z,23.70
2023-04-27T08:54:42.132Z,23.70
2023-04-27T08:57:36.277Z,23.70
2023-04-27T09:00:42.837Z,23.60
2023-04-27T09:03:39.913Z,23.70
2023-04-27T09:06:34.865Z,23.60
2023-04-27T09:09:29.340Z,23.60
2023-04-27T09:12:24.184Z,23.50
2023-04-27T09:15:18.508Z,23.50
2023-04-27T09:18:19.653Z,23.50
2023-04-27T09:21:32.361Z,23.50
2023-04-27T09:24:26.586Z,23.50
2023-04-27T09:27:24.688Z,23.50
2023-04-27T09:30:19.942Z,23.50
2023-04-27T09:33:15.332Z,23.50
2023-04-27T09:36:09.663Z,23.50
2023-04-27T09:39:07.203Z,23.40
2023-04-27T09:42:02.165Z,23.40
2023-04-27T09:44:56.924Z,23.30
2023-04-27T09:47:51.113Z,23.30
2023-04-27T09:50:47.395Z,23.30
2023-04-27T09:53:51.230Z,23.30
2023-04-27T09:57:03.702Z,23.20
2023-04-27T10:00:17.417Z,23.30
2023-04-27T10:03:45.084Z,23.20
2023-04-27T10:06:57.894Z,23.20
2023-04-27T10:09:53.148Z,23.20
2023-04-27T10:13:03.855Z,23.20
2023-04-27T10:15:58.087Z,23.20
2023-04-27T10:18:58.834Z,23.10
2023-04-27T10:22:06.612Z,23.10
2023-04-27T10:25:00.253Z,23.10
2023-04-27T10:28:03.792Z,23.10
2023-04-27T10:30:58.112Z,23.10
2023-04-27T10:33:52.479Z,23.10
2023-04-27T10:36:46.812Z,22.90
2023-04-27T10:39:47.821Z,22.90
2023-04-27T10:42:47.436Z,22.90
2023-04-27T10:45:42.782Z,22.90
2023-04-27T10:48:36.933Z,22.80
2023-04-27T10:51:31.106Z,22.80
2023-04-27T10:54:30.893Z,22.80
2023-04-27T10:57:25.247Z,22.80
2023-04-27T11:00:31.034Z,22.80
2023-04-27T11:03:26.572Z,22.80
2023-04-27T11:06:21.325Z,22.70
2023-04-27T11:09:16.420Z,22.80
2023-04-27T11:12:14.334Z,22.80
2023-04-27T11:15:09.246Z,22.80
2023-04-27T11:18:09.718Z,22.80
2023-04-27T11:21:13.131Z,22.80
2023-04-27T11:24:13.233Z,22.70
2023-04-27T11:27:08.846Z,22.70
2023-04-27T11:30:02.990Z,22.70
2023-04-27T11:32:57.501Z,22.70
2023-04-27T11:35:51.734Z,22.70
2023-04-27T11:38:46.130Z,22.70
2023-04-27T11:41:41.212Z,22.70
2023-04-27T11:44:35.971Z,22.70
2023-04-27T11:47:32.249Z,22.60
2023-04-27T11:50:27.906Z,22.60
2023-04-27T11:53:38.521Z,22.60
2023-04-27T11:56:43.365Z,22.60
2023-04-27T11:59:37.595Z,22.60
2023-04-27T12:02:32.583Z,22.60
2023-04-27T12:05:28.544Z,22.60
2023-04-27T12:08:23.778Z,22.60
2023-04-27T12:11:18.020Z,22.70
2023-04-27T12:14:12.771Z,22.70
2023-04-27T12:17:08.402Z,22.60
2023-04-27T12:20:03.142Z,22.60
2023-04-27T12:22:58.452Z,22.50
2023-04-27T12:25:52.639Z,22.50
2023-04-27T12:28:46.801Z,22.50
2023-04-27T12:31:41.206Z,22.40
2023-04-27T12:34:36.933Z,22.40
2023-04-27T12:37:31.082Z,22.40
2023-04-27T12:40:25.262Z,22.40
2023-04-27T12:43:19.771Z,22.30
2023-04-27T12:46:14.036Z,22.30
2023-04-27T12:49:09.139Z,22.20
2023-04-27T12:52:03.558Z,22.20
2023-04-27T12:55:00.410Z,22.10
2023-04-27T12:57:54.704Z,22.10
2023-04-27T13:00:48.913Z,22.00
2023-04-27T13:03:44.196Z,22.00
2023-04-27T13:06:38.571Z,21.90
2023-04-27T13:09:32.690Z,21.90
2023-04-27T13:12:27.357Z,21.80
2023-04-27T13:15:22.054Z,21.80
2023-04-27T13:18:16.310Z,21.80
2023-04-27T13:21:10.784Z,21.70
2023-04-27T13:24:05.060Z,21.70
2023-04-27T13:26:59.161Z,21.70
2023-04-27T13:29:53.590Z,21.70
2023-04-27T13:32:47.802Z,21.60
2023-04-27T13:35:42.236Z,21.60
2023-04-27T13:38:36.428Z,21.50
2023-04-27T13:41:30.617Z,21.50
2023-04-27T13:44:24.806Z,21.40
2023-04-27T13:47:19.074Z,21.40
2023-04-27T13:50:14.196Z,21.20
2023-04-27T13:53:08.477Z,21.20
2023-04-27T13:56:02.632Z,21.30
2023-04-27T13:58:57.011Z,21.30
2023-04-27T14:01:51.186Z,21.20
2023-04-27T14:04:45.464Z,21.20
2023-04-27T14:07:39.723Z,21.10
2023-04-27T14:10:33.881Z,21.00
2023-04-27T14:13:28.002Z,21.00
2023-04-27T14:16:22.297Z,21.00
2023-04-27T14:19:17.053Z,21.10
2023-04-27T14:22:11.685Z,21.00
2023-04-27T14:25:06.118Z,21.00
2023-04-27T14:28:02.031Z,21.00
2023-04-27T14:30:56.266Z,21.00
2023-04-27T14:33:50.615Z,21.00
2023-04-27T14:36:44.947Z,20.90
2023-04-27T14:39:39.575Z,20.80
2023-04-27T14:42:34.316Z,20.80
2023-04-27T14:45:33.842Z,20.90
2023-04-27T14:48:31.131Z,20.80
2023-04-27T14:51:25.265Z,20.80
2023-04-27T14:54:19.433Z,20.80
2023-04-27T14:57:13.609Z,20.80
2023-04-27T15:00:11.015Z,20.80
2023-04-27T15:03:05.495Z,20.80
2023-04-27T15:06:00.173Z,20.80
2023-04-27T15:08:54.681Z,20.70
2023-04-27T15:11:48.824Z,20.70
2023-04-27T15:14:42.983Z,20.60
2023-04-27T15:17:37.526Z,20.60
2023-04-27T15:20:31.871Z,20.60
2023-04-27T15:23:26.925Z,20.50
2023-04-27T15:26:21.055Z,20.50
2023-04-27T15:29:15.485Z,20.50
2023-04-27T15:32:09.952Z,20.50
2023-04-27T15:35:05.592Z,20.50
2023-04-27T15:37:59.808Z,20.50
2023-04-27T15:40:53.886Z,20.60
2023-04-27T15:43:48.725Z,20.60
2023-04-27T15:46:42.918Z,20.60
2023-04-27T15:49:45.832Z,20.60
2023-04-27T15:52:48.232Z,20.50
2023-04-27T15:55:42.536Z,20.50
2023-04-27T15:58:36.782Z,20.50
2023-04-27T16:01:31.096Z,20.50
2023-04-27T16:04:25.346Z,20.50
2023-04-27T16:07:19.580Z,20.50
2023-04-27T16:10:14.479Z,20.40
2023-04-27T16:13:08.587Z,20.40
2023-04-27T16:16:03.269Z,20.40
2023-04-27T16:18:58.915Z,20.40
2023-04-27T16:21:53.050Z,20.40
2023-04-27T16:24:47.285Z,20.40
2023-04-27T16:27:41.825Z,20.40
2023-04-27T16:30:36.113Z,20.30
2023-04-27T16:33:30.243Z,20.30
2023-04-27T16:36:24.474Z,20.30
2023-04-27T16:39:20.453Z,20.30
2023-04-27T16:42:19.819Z,20.20
2023-04-27T16:45:14.080Z,20.20
2023-04-27T16:48:08.904Z,20.20
2023-04-27T16:51:03.261Z,20.20
2023-04-27T16:53:57.945Z,20.20
2023-04-27T16:56:53.844Z,20.20
2023-04-27T16:59:49.249Z,20.10
2023-04-27T17:02:43.958Z,20.10
2023-04-27T17:05:38.516Z,20.10
2023-04-27T17:08:32.862Z,20.00
2023-04-27T17:11:27.640Z,20.00
2023-04-27T17:14:23.594Z,20.00
2023-04-27T17:17:18.498Z,20.00
2023-04-27T17:20:13.967Z,20.00
2023-04-27T17:23:08.236Z,20.00
2023-04-27T17:26:02.730Z,20.00
2023-04-27T17:29:01.149Z,20.00
2023-04-27T17:31:55.386Z,19.90
2023-04-27T17:34:49.757Z,20.00
2023-04-27T17:37:43.849Z,20.00
2023-04-27T17:40:38.068Z,20.00
2023-04-27T17:43:32.340Z,20.00
2023-04-27T17:46:26.952Z,20.00
2023-04-27T17:49:21.561Z,20.00
2023-04-27T17:52:15.772Z,20.00
2023-04-27T17:55:10.030Z,19.90
2023-04-27T17:58:07.631Z,19.90
2023-04-27T18:01:02.254Z,19.90
2023-04-27T18:03:56.937Z,19.90
2023-04-27T18:06:51.181Z,19.90
2023-04-27T18:09:45.343Z,20.00
2023-04-27T18:12:39.445Z,20.00
2023-04-27T18:15:33.570Z,19.90
2023-04-27T18:18:28.067Z,20.00
2023-04-27T18:21:22.307Z,20.00
2023-04-27T18:24:16.448Z,19.90
2023-04-27T18:27:11.013Z,19.90
2023-04-27T18:30:07.472Z,19.90
2023-04-27T18:33:01.622Z,20.00
2023-04-27T18:35:55.800Z,19.90
2023-04-27T18:38:49.931Z,19.90
2023-04-27T18:41:44.621Z,19.80
2023-04-27T18:44:39.290Z,19.80
2023-04-27T18:47:33.492Z,19.80
2023-04-27T18:50:28.086Z,19.80
2023-04-27T18:53:22.715Z,19.80
2023-04-27T18:56:16.943Z,19.90
2023-04-27T18:59:11.180Z,19.90
2023-04-27T19:02:05.696Z,19.80
2023-04-27T19:05:11.254Z,19.80
2023-04-27T19:08:07.088Z,19.80
2023-04-27T19:11:01.297Z,19.70
2023-04-27T19:13:55.476Z,19.70
2023-04-27T19:16:49.631Z,19.70
2023-04-27T19:19:43.909Z,19.70
2023-04-27T19:22:38.360Z,19.70
2023-04-27T19:25:32.595Z,19.70
2023-04-27T19:28:26.853Z,19.70
2023-04-27T19:31:21.112Z,19.70
2023-04-27T19:34:15.322Z,19.70
2023-04-27T19:37:09.495Z,19.70
2023-04-27T19:40:03.646Z,19.70
2023-04-27T19:42:57.889Z,19.70
2023-04-27T19:45:52.433Z,19.70
2023-04-27T19:48:46.825Z,19.60
2023-04-27T19:51:43.624Z,19.60
2023-04-27T19:54:39.345Z,19.70
2023-04-27T19:57:33.555Z,19.70
2023-04-27T20:00:27.888Z,19.70
2023-04-27T20:03:22.898Z,19.70
2023-04-27T20:06:18.185Z,19.70
2023-04-27T20:09:12.422Z,19.70
2023-04-27T20:12:07.370Z,19.70
2023-04-27T20:15:02.419Z,19.70
2023-04-27T20:17:56.704Z,19.70
2023-04-27T20:20:52.350Z,19.70
2023-04-27T20:23:49.025Z,19.60
2023-04-27T20:26:43.153Z,19.60
2023-04-27T20:29:37.665Z,19.50
2023-04-27T20:32:31.806Z,19.50
2023-04-27T20:35:30.157Z,19.50
2023-04-27T20:38:26.655Z,19.50
2023-04-27T20:41:23.383Z,19.30
2023-04-27T20:44:21.100Z,19.20
2023-04-27T20:47:18.345Z,19.10
2023-04-27T20:50:14.381Z,19.10
2023-04-27T20:53:09.120Z,19.20
2023-04-27T20:56:04.059Z,19.10
2023-04-27T20:58:59.133Z,19.10
2023-04-27T21:01:53.778Z,19.20
2023-04-27T21:04:48.771Z,19.20
2023-04-27T21:07:44.359Z,19.10
2023-04-27T21:10:40.928Z,19.10
2023-04-27T21:13:37.373Z,18.90
2023-04-27T21:16:32.722Z,18.70
2023-04-27T21:19:27.659Z,18.70
2023-04-27T21:22:22.408Z,18.60
2023-04-27T21:25:17.191Z,18.60
2023-04-27T21:28:12.114Z,18.50
2023-04-27T21:31:09.228Z,18.40
2023-04-27T21:34:09.323Z,18.30
2023-04-27T21:37:06.252Z,18.30
2023-04-27T21:40:02.703Z,18.40
2023-04-27T21:43:02.680Z,18.40
2023-04-27T21:45:59.674Z,18.40
2023-04-27T21:48:54.425Z,18.40
2023-04-27T21:51:49.371Z,18.50
2023-04-27T21:54:44.008Z,18.60
2023-04-27T21:57:38.763Z,18.60
2023-04-27T22:00:33.359Z,18.60
2023-04-27T22:03:29.026Z,18.70
2023-04-27T22:06:24.385Z,18.70
2023-04-27T22:09:19.042Z,18.80
2023-04-27T22:12:13.646Z,18.80
2023-04-27T22:15:08.603Z,18.80
2023-04-27T22:18:07.983Z,18.70
2023-04-27T22:21:02.493Z,18.80
2023-04-27T22:23:58.774Z,18.80
2023-04-27T22:26:53.532Z,18.90
2023-04-27T22:29:47.774Z,18.90
2023-04-27T22:32:42.601Z,18.90
2023-04-27T22:35:38.653Z,18.80
2023-04-27T22:38:33.077Z,18.80
2023-04-27T22:41:27.630Z,18.90
2023-04-27T22:44:22.471Z,18.90
2023-04-27T22:47:16.789Z,18.90
2023-04-27T22:50:11.689Z,19.00
2023-04-27T22:53:09.146Z,18.90
2023-04-27T22:56:03.594Z,18.80
2023-04-27T22:58:58.078Z,18.80
2023-04-27T23:01:52.980Z,18.80
2023-04-27T23:04:47.290Z,18.80
2023-04-27T23:07:43.996Z,18.90
2023-04-27T23:10:39.973Z,18.80
2023-04-27T23:13:34.191Z,18.70
2023-04-27T23:16:28.557Z,18.70
2023-04-27T23:19:22.792Z,18.70
2023-04-27T23:22:17.513Z,18.70
2023-04-27T23:25:12.672Z,18.70
2023-04-27T23:28:06.966Z,18.60
2023-04-27T23:31:01.176Z,18.60
2023-04-27T23:33:55.385Z,18.70
2023-04-27T23:36:49.602Z,18.70
2023-04-27T23:39:43.737Z,18.70
2023-04-27T23:42:40.261Z,18.80
2023-04-27T23:45:34.468Z,18.70
2023-04-27T23:48:28.695Z,18.90
2023-04-27T23:51:22.869Z,18.90
2023-04-27T23:54:17.501Z,18.90
2023-04-27T23:57:11.975Z,18.90
